sensor_id;sensor_type;location;lat;lon;timestamp;pressure;altitude;pressure_sealevel;temperature;humidity
15195;BME280;7698;42.478;23.756;2023-04-08T14:21:07;93368.59;;;11.05;67.05
15195;BME280;7698;42.478;23.756;2023-04-08T14:23:34;93371.94;;;11.29;64.32
15195;BME280;7698;42.478;23.756;2023-04-08T14:26:01;93365.47;;;11.42;61.92
15195;BME280;7698;42.478;23.756;2023-04-08T14:28:28;93369.09;;;11.36;62.58
15195;BME280;7698;42.478;23.756;2023-04-08T14:30:55;93376.97;;;11.59;61.90
15195;BME280;7698;42.478;23.756;2023-04-08T14:33:22;93370.56;;;11.60;61.92
15195;BME280;7698;42.478;23.756;2023-04-08T14:35:49;93372.44;;;11.60;62.72
15195;BME280;7698;42.478;23.756;2023-04-08T14:38:19;93374.78;;;11.73;62.35
15195;BME280;7698;42.478;23.756;2023-04-08T14:40:46;93371.69;;;11.64;61.41
15195;BME280;7698;42.478;23.756;2023-04-08T14:43:13;93377.22;;;11.41;62.35
15195;BME280;7698;42.478;23.756;2023-04-08T14:45:40;93373.41;;;11.37;63.18
15195;BME280;7698;42.478;23.756;2023-04-08T14:48:06;93359.38;;;11.30;61.92
15195;BME280;7698;42.478;23.756;2023-04-08T14:50:33;93371.06;;;11.40;64.46
15195;BME280;7698;42.478;23.756;2023-04-08T14:53:00;93371.03;;;11.57;62.70
15195;BME280;7698;42.478;23.756;2023-04-08T14:55:29;93372.19;;;11.61;61.23
15195;BME280;7698;42.478;23.756;2023-04-08T14:57:56;93367.88;;;11.60;60.85
15195;BME280;7698;42.478;23.756;2023-04-08T15:00:23;93365.53;;;11.64;61.57
15195;BME280;7698;42.478;23.756;2023-04-08T15:02:51;93370.72;;;11.70;60.56
15195;BME280;7698;42.478;23.756;2023-04-08T15:05:18;93364.66;;;11.75;60.66
15195;BME280;7698;42.478;23.756;2023-04-08T15:07:45;93365.78;;;11.79;60.17
15195;BME280;7698;42.478;23.756;2023-04-08T15:10:13;93367.56;;;11.73;61.97
15195;BME280;7698;42.478;23.756;2023-04-08T15:12:41;93377.69;;;11.71;62.71
15195;BME280;7698;42.478;23.756;2023-04-08T15:15:09;93378.19;;;11.68;61.04
15195;BME280;7698;42.478;23.756;2023-04-08T15:17:36;93377.94;;;11.53;60.48
15195;BME280;7698;42.478;23.756;2023-04-08T15:20:03;93381.66;;;11.35;61.25
15195;BME280;7698;42.478;23.756;2023-04-08T15:22:30;93379.56;;;11.21;62.99
15195;BME280;7698;42.478;23.756;2023-04-08T15:24:58;93382.66;;;11.01;65.00
15195;BME280;7698;42.478;23.756;2023-04-08T15:27:25;93381.75;;;10.95;66.83
15195;BME280;7698;42.478;23.756;2023-04-08T15:29:53;93381.22;;;10.93;68.71
15195;BME280;7698;42.478;23.756;2023-04-08T15:32:20;93376.81;;;10.87;66.98
15195;BME280;7698;42.478;23.756;2023-04-08T15:34:47;93379.66;;;10.69;67.76
15195;BME280;7698;42.478;23.756;2023-04-08T15:37:15;93379.19;;;10.72;69.02
15195;BME280;7698;42.478;23.756;2023-04-08T15:39:42;93384.19;;;10.68;69.92
15195;BME280;7698;42.478;23.756;2023-04-08T15:42:09;93388.53;;;10.58;69.61
15195;BME280;7698;42.478;23.756;2023-04-08T15:44:36;93377.66;;;10.47;69.83
15195;BME280;7698;42.478;23.756;2023-04-08T15:47:04;93374.16;;;10.47;69.26
15195;BME280;7698;42.478;23.756;2023-04-08T15:49:32;93376.50;;;10.43;69.89
15195;BME280;7698;42.478;23.756;2023-04-08T15:51:59;93377.13;;;10.34;72.31
15195;BME280;7698;42.478;23.756;2023-04-08T15:54:26;93371.44;;;10.30;72.47
15195;BME280;7698;42.478;23.756;2023-04-08T15:56:54;93371.91;;;10.27;72.78
15195;BME280;7698;42.478;23.756;2023-04-08T15:59:22;93370.28;;;10.26;73.24
15195;BME280;7698;42.478;23.756;2023-04-08T16:01:50;93372.47;;;10.17;75.95
15195;BME280;7698;42.478;23.756;2023-04-08T16:04:19;93374.50;;;9.99;75.66
15195;BME280;7698;42.478;23.756;2023-04-08T16:06:47;93376.56;;;9.97;76.68
15195;BME280;7698;42.478;23.756;2023-04-08T16:09:14;93371.34;;;9.90;76.79
15195;BME280;7698;42.478;23.756;2023-04-08T16:11:46;93380.28;;;9.96;76.90
15195;BME280;7698;42.478;23.756;2023-04-08T16:14:14;93381.22;;;9.90;78.85
15195;BME280;7698;42.478;23.756;2023-04-08T16:16:41;93386.19;;;9.86;79.15
15195;BME280;7698;42.478;23.756;2023-04-08T16:19:08;93379.00;;;9.87;79.08
15195;BME280;7698;42.478;23.756;2023-04-08T16:21:37;93382.28;;;9.77;80.15
15195;BME280;7698;42.478;23.756;2023-04-08T16:24:04;93378.56;;;9.66;80.76
15195;BME280;7698;42.478;23.756;2023-04-08T16:26:32;93379.72;;;9.59;81.07
15195;BME280;7698;42.478;23.756;2023-04-08T16:28:59;93380.88;;;9.51;82.19
15195;BME280;7698;42.478;23.756;2023-04-08T16:31:27;93388.16;;;9.44;82.14
15195;BME280;7698;42.478;23.756;2023-04-08T16:33:54;93386.28;;;9.33;82.36
15195;BME280;7698;42.478;23.756;2023-04-08T16:36:22;93394.50;;;9.31;82.31
15195;BME280;7698;42.478;23.756;2023-04-08T16:38:50;93392.34;;;9.28;82.63
15195;BME280;7698;42.478;23.756;2023-04-08T16:41:18;93398.56;;;9.22;80.90
15195;BME280;7698;42.478;23.756;2023-04-08T16:43:45;93398.91;;;9.14;81.52
15195;BME280;7698;42.478;23.756;2023-04-08T16:46:14;93406.06;;;9.13;80.96
15195;BME280;7698;42.478;23.756;2023-04-08T16:48:43;93401.88;;;9.06;81.46
15195;BME280;7698;42.478;23.756;2023-04-08T16:51:10;93404.75;;;9.04;81.17
15195;BME280;7698;42.478;23.756;2023-04-08T16:53:38;93409.75;;;9.01;80.92
15195;BME280;7698;42.478;23.756;2023-04-08T16:56:12;93403.72;;;8.94;80.77
15195;BME280;7698;42.478;23.756;2023-04-08T16:58:40;93407.03;;;8.89;81.11
15195;BME280;7698;42.478;23.756;2023-04-08T17:01:09;93414.31;;;8.82;81.77
15195;BME280;7698;42.478;23.756;2023-04-08T17:03:38;93408.38;;;8.68;83.07
15195;BME280;7698;42.478;23.756;2023-04-08T17:06:06;93413.31;;;8.65;84.70
15195;BME280;7698;42.478;23.756;2023-04-08T17:08:34;93417.25;;;8.62;84.54
15195;BME280;7698;42.478;23.756;2023-04-08T17:11:05;93418.72;;;8.58;84.53
15195;BME280;7698;42.478;23.756;2023-04-08T17:13:36;93425.53;;;8.54;84.90
15195;BME280;7698;42.478;23.756;2023-04-08T17:16:04;93433.50;;;8.54;85.11
15195;BME280;7698;42.478;23.756;2023-04-08T17:18:31;93432.09;;;8.52;85.57
15195;BME280;7698;42.478;23.756;2023-04-08T17:20:58;93440.53;;;8.48;85.26
15195;BME280;7698;42.478;23.756;2023-04-08T17:23:26;93438.78;;;8.42;86.27
15195;BME280;7698;42.478;23.756;2023-04-08T17:25:53;93440.13;;;8.33;87.64
15195;BME280;7698;42.478;23.756;2023-04-08T17:28:20;93440.13;;;8.33;87.78
15195;BME280;7698;42.478;23.756;2023-04-08T17:30:48;93445.03;;;8.30;87.94
15195;BME280;7698;42.478;23.756;2023-04-08T17:33:15;93451.78;;;8.32;88.18
15195;BME280;7698;42.478;23.756;2023-04-08T17:35:42;93452.97;;;8.36;88.79
15195;BME280;7698;42.478;23.756;2023-04-08T17:38:09;93447.44;;;8.38;88.48
15195;BME280;7698;42.478;23.756;2023-04-08T17:40:37;93450.47;;;8.41;88.81
15195;BME280;7698;42.478;23.756;2023-04-08T17:43:05;93459.53;;;8.52;89.62
15195;BME280;7698;42.478;23.756;2023-04-08T17:45:32;93459.53;;;8.52;88.76
15195;BME280;7698;42.478;23.756;2023-04-08T17:48:01;93469.38;;;8.52;88.58
15195;BME280;7698;42.478;23.756;2023-04-08T17:50:30;93471.91;;;8.46;88.55
15195;BME280;7698;42.478;23.756;2023-04-08T17:52:57;93481.56;;;8.41;88.86
15195;BME280;7698;42.478;23.756;2023-04-08T17:55:24;93486.97;;;8.34;89.45
15195;BME280;7698;42.478;23.756;2023-04-08T17:57:51;93492.50;;;8.33;90.23
15195;BME280;7698;42.478;23.756;2023-04-08T18:00:18;93500.31;;;8.28;91.48
15195;BME280;7698;42.478;23.756;2023-04-08T18:02:46;93492.75;;;8.25;92.61
15195;BME280;7698;42.478;23.756;2023-04-08T18:05:15;93506.28;;;8.23;93.79
15195;BME280;7698;42.478;23.756;2023-04-08T18:07:42;93501.19;;;8.22;94.42
15195;BME280;7698;42.478;23.756;2023-04-08T18:10:10;93502.81;;;8.23;95.27
15195;BME280;7698;42.478;23.756;2023-04-08T18:12:38;93503.28;;;8.20;95.75
15195;BME280;7698;42.478;23.756;2023-04-08T18:15:06;93514.47;;;8.22;96.13
15195;BME280;7698;42.478;23.756;2023-04-08T18:17:34;93511.00;;;8.21;96.93
15195;BME280;7698;42.478;23.756;2023-04-08T18:20:02;93516.09;;;8.23;98.45
15195;BME280;7698;42.478;23.756;2023-04-08T18:22:31;93515.66;;;8.26;98.19
15195;BME280;7698;42.478;23.756;2023-04-08T18:24:58;93524.91;;;8.23;98.04
15195;BME280;7698;42.478;23.756;2023-04-08T18:27:26;93523.25;;;8.22;98.88
15195;BME280;7698;42.478;23.756;2023-04-08T18:29:53;93527.78;;;8.22;98.83
15195;BME280;7698;42.478;23.756;2023-04-08T18:32:21;93526.81;;;8.16;99.59
15195;BME280;7698;42.478;23.756;2023-04-08T18:34:49;93523.78;;;8.12;100.00
15195;BME280;7698;42.478;23.756;2023-04-08T18:37:16;93528.88;;;8.14;100.00
15195;BME280;7698;42.478;23.756;2023-04-08T18:39:46;93538.50;;;8.15;100.00
15195;BME280;7698;42.478;23.756;2023-04-08T18:42:14;93545.28;;;8.11;100.00
15195;BME280;7698;42.478;23.756;2023-04-08T18:44:41;93540.56;;;8.13;100.00
15195;BME280;7698;42.478;23.756;2023-04-08T18:47:08;93529.91;;;8.13;100.00
15195;BME280;7698;42.478;23.756;2023-04-08T18:49:35;93542.25;;;8.07;100.00
15195;BME280;7698;42.478;23.756;2023-04-08T18:52:03;93538.97;;;8.05;100.00
15195;BME280;7698;42.478;23.756;2023-04-08T18:54:31;93538.38;;;8.03;100.00
15195;BME280;7698;42.478;23.756;2023-04-08T18:57:00;93541.69;;;7.99;100.00
15195;BME280;7698;42.478;23.756;2023-04-08T18:59:27;93546.28;;;7.92;100.00
15195;BME280;7698;42.478;23.756;2023-04-08T19:01:55;93546.97;;;7.80;100.00
15195;BME280;7698;42.478;23.756;2023-04-08T19:04:22;93541.69;;;7.74;100.00
15195;BME280;7698;42.478;23.756;2023-04-08T19:06:49;93549.44;;;7.75;100.00
15195;BME280;7698;42.478;23.756;2023-04-08T19:09:17;93555.19;;;7.72;100.00
15195;BME280;7698;42.478;23.756;2023-04-08T19:11:44;93554.59;;;7.70;100.00
15195;BME280;7698;42.478;23.756;2023-04-08T19:14:14;93546.09;;;7.62;100.00
15195;BME280;7698;42.478;23.756;2023-04-08T19:16:41;93557.38;;;7.57;100.00
15195;BME280;7698;42.478;23.756;2023-04-08T19:19:08;93566.19;;;7.51;100.00
15195;BME280;7698;42.478;23.756;2023-04-08T19:21:35;93559.88;;;7.45;100.00
15195;BME280;7698;42.478;23.756;2023-04-08T19:24:02;93560.91;;;7.44;100.00
15195;BME280;7698;42.478;23.756;2023-04-08T19:26:31;93559.69;;;7.40;100.00
15195;BME280;7698;42.478;23.756;2023-04-08T19:28:58;93561.78;;;7.38;100.00
15195;BME280;7698;42.478;23.756;2023-04-08T19:31:27;93558.25;;;7.44;100.00
15195;BME280;7698;42.478;23.756;2023-04-08T19:33:54;93568.06;;;7.44;100.00
15195;BME280;7698;42.478;23.756;2023-04-08T19:36:20;93565.22;;;7.39;100.00
15195;BME280;7698;42.478;23.756;2023-04-08T19:38:47;93568.94;;;7.38;100.00
15195;BME280;7698;42.478;23.756;2023-04-08T19:41:14;93568.56;;;7.34;100.00
15195;BME280;7698;42.478;23.756;2023-04-08T19:43:41;93572.22;;;7.33;100.00
15195;BME280;7698;42.478;23.756;2023-04-08T19:46:08;93568.75;;;7.33;100.00
15195;BME280;7698;42.478;23.756;2023-04-08T19:48:36;93561.41;;;7.35;100.00
15195;BME280;7698;42.478;23.756;2023-04-08T19:51:03;93564.81;;;7.42;100.00
15195;BME280;7698;42.478;23.756;2023-04-08T19:53:31;93565.97;;;7.53;100.00
15195;BME280;7698;42.478;23.756;2023-04-08T19:55:58;93568.81;;;7.58;100.00
15195;BME280;7698;42.478;23.756;2023-04-08T19:58:26;93573.31;;;7.57;100.00
15195;BME280;7698;42.478;23.756;2023-04-08T20:00:53;93565.75;;;7.54;100.00
15195;BME280;7698;42.478;23.756;2023-04-08T20:03:20;93567.22;;;7.50;100.00
15195;BME280;7698;42.478;23.756;2023-04-08T20:05:49;93565.53;;;7.56;100.00
15195;BME280;7698;42.478;23.756;2023-04-08T20:08:16;93568.16;;;7.62;100.00
15195;BME280;7698;42.478;23.756;2023-04-08T20:10:43;93560.59;;;7.66;100.00
15195;BME280;7698;42.478;23.756;2023-04-08T20:13:10;93562.78;;;7.69;100.00
15195;BME280;7698;42.478;23.756;2023-04-08T20:15:38;93560.94;;;7.69;100.00
15195;BME280;7698;42.478;23.756;2023-04-08T20:18:05;93564.03;;;7.66;100.00
15195;BME280;7698;42.478;23.756;2023-04-08T20:20:32;93566.53;;;7.61;100.00
15195;BME280;7698;42.478;23.756;2023-04-08T20:23:01;93578.19;;;7.60;100.00
15195;BME280;7698;42.478;23.756;2023-04-08T20:25:28;93574.72;;;7.60;100.00
15195;BME280;7698;42.478;23.756;2023-04-08T20:27:56;93571.25;;;7.59;100.00
15195;BME280;7698;42.478;23.756;2023-04-08T20:30:23;93571.25;;;7.59;100.00
15195;BME280;7698;42.478;23.756;2023-04-08T20:32:49;93573.69;;;7.61;100.00
15195;BME280;7698;42.478;23.756;2023-04-08T20:35:16;93564.28;;;7.65;100.00
15195;BME280;7698;42.478;23.756;2023-04-08T20:37:43;93568.56;;;7.66;100.00
15195;BME280;7698;42.478;23.756;2023-04-08T20:40:12;93570.75;;;7.69;100.00
15195;BME280;7698;42.478;23.756;2023-04-08T20:42:39;93573.41;;;7.69;100.00
15195;BME280;7698;42.478;23.756;2023-04-08T20:45:07;93571.78;;;7.68;100.00
15195;BME280;7698;42.478;23.756;2023-04-08T20:47:35;93571.56;;;7.69;100.00
15195;BME280;7698;42.478;23.756;2023-04-08T20:50:01;93570.53;;;7.70;100.00
15195;BME280;7698;42.478;23.756;2023-04-08T20:52:29;93576.06;;;7.69;100.00
15195;BME280;7698;42.478;23.756;2023-04-08T20:54:56;93569.31;;;7.73;100.00
15195;BME280;7698;42.478;23.756;2023-04-08T20:57:24;93572.78;;;7.73;100.00
15195;BME280;7698;42.478;23.756;2023-04-08T20:59:51;93565.41;;;7.75;100.00
15195;BME280;7698;42.478;23.756;2023-04-08T21:02:18;93573.97;;;7.77;100.00
15195;BME280;7698;42.478;23.756;2023-04-08T21:04:46;93574.56;;;7.79;100.00
15195;BME280;7698;42.478;23.756;2023-04-08T21:07:13;93564.38;;;7.76;100.00
15195;BME280;7698;42.478;23.756;2023-04-08T21:09:40;93568.06;;;7.75;100.00
15195;BME280;7698;42.478;23.756;2023-04-08T21:12:07;93564.59;;;7.75;100.00
15195;BME280;7698;42.478;23.756;2023-04-08T21:14:35;93562.97;;;7.74;100.00
15195;BME280;7698;42.478;23.756;2023-04-08T21:17:02;93566.63;;;7.73;100.00
15195;BME280;7698;42.478;23.756;2023-04-08T21:19:29;93562.13;;;7.73;100.00
15195;BME280;7698;42.478;23.756;2023-04-08T21:21:56;93557.84;;;7.72;100.00
15195;BME280;7698;42.478;23.756;2023-04-08T21:24:22;93567.06;;;7.70;100.00
15195;BME280;7698;42.478;23.756;2023-04-08T21:26:49;93569.09;;;7.74;100.00
15195;BME280;7698;42.478;23.756;2023-04-08T21:29:16;93560.09;;;7.75;100.00
15195;BME280;7698;42.478;23.756;2023-04-08T21:31:45;93563.56;;;7.76;100.00
15195;BME280;7698;42.478;23.756;2023-04-08T21:34:12;93561.50;;;7.78;100.00
15195;BME280;7698;42.478;23.756;2023-04-08T21:36:39;93559.66;;;7.78;100.00
15195;BME280;7698;42.478;23.756;2023-04-08T21:39:06;93556.41;;;7.76;100.00
15195;BME280;7698;42.478;23.756;2023-04-08T21:41:33;93556.00;;;7.73;100.00
15195;BME280;7698;42.478;23.756;2023-04-08T21:44:00;93557.03;;;7.72;100.00
15195;BME280;7698;42.478;23.756;2023-04-08T21:46:27;93552.75;;;7.71;100.00
15195;BME280;7698;42.478;23.756;2023-04-08T21:48:55;93561.53;;;7.71;100.00
15195;BME280;7698;42.478;23.756;2023-04-08T21:51:22;93556.66;;;7.68;100.00
15195;BME280;7698;42.478;23.756;2023-04-08T21:53:49;93555.84;;;7.68;100.00
15195;BME280;7698;42.478;23.756;2023-04-08T21:56:16;93555.03;;;7.67;100.00
15195;BME280;7698;42.478;23.756;2023-04-08T21:58:43;93558.50;;;7.68;100.00
15195;BME280;7698;42.478;23.756;2023-04-08T22:01:10;93556.66;;;7.68;100.00
15195;BME280;7698;42.478;23.756;2023-04-08T22:03:37;93562.63;;;7.64;100.00
15195;BME280;7698;42.478;23.756;2023-04-08T22:06:07;93558.28;;;7.69;100.00
15195;BME280;7698;42.478;23.756;2023-04-08T22:08:35;93562.19;;;7.67;100.00
15195;BME280;7698;42.478;23.756;2023-04-08T22:11:05;93558.13;;;7.64;100.00
15195;BME280;7698;42.478;23.756;2023-04-08T22:13:33;93560.59;;;7.66;100.00
15195;BME280;7698;42.478;23.756;2023-04-08T22:16:00;93565.09;;;7.65;100.00
15195;BME280;7698;42.478;23.756;2023-04-08T22:18:27;93564.28;;;7.65;100.00
15195;BME280;7698;42.478;23.756;2023-04-08T22:20:54;93565.66;;;7.67;100.00
15195;BME280;7698;42.478;23.756;2023-04-08T22:23:23;93568.91;;;7.69;100.00
15195;BME280;7698;42.478;23.756;2023-04-08T22:25:50;93566.47;;;7.68;100.00
15195;BME280;7698;42.478;23.756;2023-04-08T22:28:17;93566.47;;;7.68;100.00
15195;BME280;7698;42.478;23.756;2023-04-08T22:30:44;93563.00;;;7.67;100.00
15195;BME280;7698;42.478;23.756;2023-04-08T22:33:10;93574.44;;;7.68;100.00
15195;BME280;7698;42.478;23.756;2023-04-08T22:35:38;93562.19;;;7.67;100.00
15195;BME280;7698;42.478;23.756;2023-04-08T22:38:04;93566.69;;;7.66;100.00
15195;BME280;7698;42.478;23.756;2023-04-08T22:40:35;93562.19;;;7.67;100.00
15195;BME280;7698;42.478;23.756;2023-04-08T22:43:02;93569.13;;;7.68;100.00
15195;BME280;7698;42.478;23.756;2023-04-08T22:45:29;93569.34;;;7.66;100.00
15195;BME280;7698;42.478;23.756;2023-04-08T22:47:56;93563.44;;;7.64;100.00
15195;BME280;7698;42.478;23.756;2023-04-08T22:50:24;93573.47;;;7.62;100.00
15195;BME280;7698;42.478;23.756;2023-04-08T22:52:51;93563.88;;;7.61;100.00
15195;BME280;7698;42.478;23.756;2023-04-08T22:55:18;93565.50;;;7.62;100.00
15195;BME280;7698;42.478;23.756;2023-04-08T22:57:46;93558.34;;;7.63;100.00
15195;BME280;7698;42.478;23.756;2023-04-08T23:00:13;93561.81;;;7.63;100.00
15195;BME280;7698;42.478;23.756;2023-04-08T23:02:40;93558.56;;;7.61;100.00
15195;BME280;7698;42.478;23.756;2023-04-08T23:05:08;93558.38;;;7.56;100.00
15195;BME280;7698;42.478;23.756;2023-04-08T23:07:34;93555.94;;;7.55;100.00
15195;BME280;7698;42.478;23.756;2023-04-08T23:10:02;93548.78;;;7.55;100.00
15195;BME280;7698;42.478;23.756;2023-04-08T23:12:29;93555.94;;;7.55;100.00
15195;BME280;7698;42.478;23.756;2023-04-08T23:14:57;93551.44;;;7.55;100.00
15195;BME280;7698;42.478;23.756;2023-04-08T23:17:24;93547.16;;;7.54;100.00
15195;BME280;7698;42.478;23.756;2023-04-08T23:19:51;93548.41;;;7.52;100.00
15195;BME280;7698;42.478;23.756;2023-04-08T23:22:18;93550.50;;;7.43;100.00
15195;BME280;7698;42.478;23.756;2023-04-08T23:24:45;93544.38;;;7.42;100.00
15195;BME280;7698;42.478;23.756;2023-04-08T23:27:12;93542.13;;;7.39;100.00
15195;BME280;7698;42.478;23.756;2023-04-08T23:29:38;93545.78;;;7.45;100.00
15195;BME280;7698;42.478;23.756;2023-04-08T23:32:07;93540.28;;;7.40;100.00
15195;BME280;7698;42.478;23.756;2023-04-08T23:34:34;93536.59;;;7.41;100.00
15195;BME280;7698;42.478;23.756;2023-04-08T23:37:02;93539.13;;;7.36;100.00
15195;BME280;7698;42.478;23.756;2023-04-08T23:39:29;93537.50;;;7.35;100.00
15195;BME280;7698;42.478;23.756;2023-04-08T23:41:56;93533.34;;;7.39;100.00
15195;BME280;7698;42.478;23.756;2023-04-08T23:44:23;93548.25;;;7.40;100.00
15195;BME280;7698;42.478;23.756;2023-04-08T23:46:50;93541.91;;;7.41;100.00
15195;BME280;7698;42.478;23.756;2023-04-08T23:49:18;93544.38;;;7.42;100.00
15195;BME280;7698;42.478;23.756;2023-04-08T23:51:45;93543.75;;;7.40;100.00
15195;BME280;7698;42.478;23.756;2023-04-08T23:54:12;93543.97;;;7.39;100.00
15195;BME280;7698;42.478;23.756;2023-04-08T23:56:40;93546.88;;;7.37;100.00
15195;BME280;7698;42.478;23.756;2023-04-08T23:59:07;93540.53;;;7.38;100.00
